createdAt,value
2022-07-26T00:02:09.882Z,3.75
2022-07-26T00:04:37.554Z,3.00
2022-07-26T00:07:04.704Z,3.58
2022-07-26T00:09:31.732Z,3.92
2022-07-26T00:11:58.822Z,3.40
2022-07-26T00:14:26.040Z,3.40
2022-07-26T00:16:53.321Z,3.28
2022-07-26T00:19:20.458Z,4.82
2022-07-26T00:21:47.871Z,3.30
2022-07-26T00:24:14.932Z,3.67
2022-07-26T00:26:42.031Z,3.50
2022-07-26T00:29:09.540Z,3.67
2022-07-26T00:31:36.812Z,3.47
2022-07-26T00:34:04.020Z,3.17
2022-07-26T00:36:31.073Z,3.25
2022-07-26T00:38:58.168Z,3.67
2022-07-26T00:41:25.246Z,4.10
2022-07-26T00:43:59.552Z,4.00
2022-07-26T00:46:27.052Z,3.78
2022-07-26T00:48:54.413Z,4.25
2022-07-26T00:51:22.109Z,4.00
2022-07-26T00:53:50.470Z,4.00
2022-07-26T00:56:18.013Z,4.70
2022-07-26T00:58:45.441Z,4.13
2022-07-26T01:01:12.641Z,4.15
2022-07-26T01:03:40.035Z,3.70
2022-07-26T01:06:07.295Z,4.28
2022-07-26T01:08:34.655Z,3.53
2022-07-26T01:11:01.748Z,4.30
2022-07-26T01:13:33.256Z,4.00
2022-07-26T01:16:02.708Z,3.78
2022-07-26T01:18:29.785Z,3.83
2022-07-26T01:20:59.410Z,3.72
2022-07-26T01:23:26.713Z,3.35
2022-07-26T01:25:53.656Z,3.30
2022-07-26T01:28:20.674Z,3.20
2022-07-26T01:30:49.152Z,3.30
2022-07-26T01:33:16.424Z,3.25
2022-07-26T01:35:43.425Z,3.08
2022-07-26T01:38:10.454Z,3.10
2022-07-26T01:40:37.439Z,2.88
2022-07-26T01:43:04.428Z,3.30
2022-07-26T01:45:31.967Z,2.90
2022-07-26T01:47:59.307Z,3.08
2022-07-26T01:50:26.359Z,3.40
2022-07-26T01:52:53.370Z,2.90
2022-07-26T01:55:20.432Z,3.60
2022-07-26T01:57:47.718Z,3.15
2022-07-26T02:00:15.363Z,3.20
2022-07-26T02:02:42.501Z,3.20
2022-07-26T02:05:09.934Z,3.00
2022-07-26T02:07:44.490Z,2.83
2022-07-26T02:10:12.680Z,2.95
2022-07-26T02:12:40.887Z,3.33
2022-07-26T02:15:09.535Z,3.17
2022-07-26T02:17:36.715Z,2.80
2022-07-26T02:20:05.253Z,3.75
2022-07-26T02:22:32.230Z,3.13
2022-07-26T02:25:04.450Z,2.90
2022-07-26T02:27:32.805Z,2.78
2022-07-26T02:29:59.827Z,3.40
2022-07-26T02:32:26.818Z,3.30
2022-07-26T02:34:53.748Z,3.38
2022-07-26T02:37:20.788Z,2.80
2022-07-26T02:39:47.737Z,2.90
2022-07-26T02:42:14.869Z,2.95
2022-07-26T02:44:41.871Z,2.97
2022-07-26T02:47:08.875Z,3.15
2022-07-26T02:49:39.719Z,3.30
2022-07-26T02:52:06.745Z,3.38
2022-07-26T02:54:33.681Z,2.67
2022-07-26T02:57:00.724Z,3.80
2022-07-26T02:59:27.703Z,2.90
2022-07-26T03:01:54.917Z,3.25
2022-07-26T03:04:22.998Z,3.30
2022-07-26T03:06:50.133Z,3.22
2022-07-26T03:09:17.276Z,3.30
2022-07-26T03:11:44.262Z,3.20
2022-07-26T03:14:11.506Z,2.92
2022-07-26T03:16:39.089Z,3.80
2022-07-26T03:19:06.071Z,2.92
2022-07-26T03:21:33.037Z,3.13
2022-07-26T03:24:03.458Z,3.03
2022-07-26T03:26:30.573Z,3.20
2022-07-26T03:28:57.770Z,3.17
2022-07-26T03:31:25.723Z,3.70
2022-07-26T03:33:52.914Z,3.33
2022-07-26T03:36:19.914Z,3.33
2022-07-26T03:38:46.986Z,3.50
2022-07-26T03:41:14.034Z,3.58
2022-07-26T03:43:41.302Z,2.90
2022-07-26T03:46:08.559Z,3.20
2022-07-26T03:48:35.769Z,3.65
2022-07-26T03:51:02.930Z,3.45
2022-07-26T03:53:29.946Z,3.13
2022-07-26T03:56:15.718Z,3.75
2022-07-26T03:58:42.670Z,3.50
2022-07-26T04:01:09.770Z,3.40
2022-07-26T04:03:36.777Z,3.72
2022-07-26T04:06:05.288Z,2.90
2022-07-26T04:08:32.805Z,3.67
2022-07-26T04:10:59.770Z,4.03
2022-07-26T04:13:26.784Z,3.80
2022-07-26T04:15:54.014Z,3.47
2022-07-26T04:18:22.151Z,3.22
2022-07-26T04:20:51.943Z,3.17
2022-07-26T04:23:19.090Z,3.40
2022-07-26T04:25:46.137Z,3.63
2022-07-26T04:28:13.329Z,3.10
2022-07-26T04:30:40.700Z,3.45
2022-07-26T04:33:08.054Z,3.65
2022-07-26T04:35:35.787Z,3.80
2022-07-26T04:38:04.148Z,3.15
2022-07-26T04:40:33.695Z,3.63
2022-07-26T04:43:02.333Z,3.50
2022-07-26T04:45:30.201Z,3.70
2022-07-26T04:47:57.579Z,3.10
2022-07-26T04:50:25.642Z,3.42
2022-07-26T04:52:52.771Z,3.95
2022-07-26T04:55:20.365Z,3.03
2022-07-26T04:57:48.232Z,3.30
2022-07-26T05:00:21.954Z,3.70
2022-07-26T05:02:51.041Z,3.25
2022-07-26T05:05:18.231Z,4.13
2022-07-26T05:07:47.262Z,3.05
2022-07-26T05:10:15.808Z,4.57
2022-07-26T05:12:43.025Z,4.10
2022-07-26T05:15:13.779Z,3.88
2022-07-26T05:17:43.302Z,4.18
2022-07-26T05:20:12.578Z,4.28
2022-07-26T05:22:39.706Z,4.22
2022-07-26T05:25:07.864Z,3.75
2022-07-26T05:27:34.948Z,4.40
2022-07-26T05:30:01.997Z,3.55
2022-07-26T05:32:29.120Z,4.00
2022-07-26T05:34:56.079Z,3.85
2022-07-26T05:37:23.116Z,3.88
2022-07-26T05:39:50.176Z,3.78
2022-07-26T05:42:17.253Z,4.30
2022-07-26T05:44:44.187Z,3.35
2022-07-26T05:47:11.624Z,6.68
2022-07-26T05:49:39.856Z,6.80
2022-07-26T05:52:08.808Z,7.00
2022-07-26T05:54:36.184Z,6.97
2022-07-26T05:57:03.826Z,6.00
2022-07-26T05:59:31.681Z,4.15
2022-07-26T06:01:58.784Z,5.07
2022-07-26T06:04:27.213Z,4.25
2022-07-26T06:06:55.212Z,3.97
2022-07-26T06:09:25.330Z,4.55
2022-07-26T06:11:52.767Z,5.10
2022-07-26T06:14:20.690Z,6.05
2022-07-26T06:16:48.496Z,5.60
2022-07-26T06:19:15.596Z,4.80
2022-07-26T06:21:42.858Z,4.40
2022-07-26T06:24:10.470Z,4.53
2022-07-26T06:26:37.765Z,3.90
2022-07-26T06:29:04.809Z,3.92
2022-07-26T06:31:31.847Z,4.10
2022-07-26T06:33:58.890Z,4.43
2022-07-26T06:36:30.331Z,4.93
2022-07-26T06:38:58.284Z,4.40
2022-07-26T06:41:25.473Z,4.90
2022-07-26T06:43:52.483Z,4.50
2022-07-26T06:46:21.088Z,4.35
2022-07-26T06:48:52.768Z,4.78
2022-07-26T06:51:20.236Z,5.10
2022-07-26T06:53:47.214Z,5.00
2022-07-26T06:56:15.130Z,4.45
2022-07-26T06:58:42.878Z,5.07
2022-07-26T07:01:10.127Z,5.00
2022-07-26T07:03:37.753Z,5.20
2022-07-26T07:06:04.906Z,5.22
2022-07-26T07:08:31.931Z,5.00
2022-07-26T07:10:59.021Z,5.35
2022-07-26T07:13:26.060Z,5.15
2022-07-26T07:15:53.728Z,5.78
2022-07-26T07:18:21.459Z,5.30
2022-07-26T07:20:48.420Z,5.57
2022-07-26T07:23:15.443Z,5.70
2022-07-26T07:25:44.742Z,5.60
2022-07-26T07:28:12.135Z,5.63
2022-07-26T07:30:39.086Z,5.82
2022-07-26T07:33:09.487Z,5.57
2022-07-26T07:38:17.241Z,6.00
2022-07-26T07:40:44.863Z,5.75
2022-07-26T07:43:11.894Z,5.07
2022-07-26T07:45:38.893Z,5.75
2022-07-26T07:48:06.313Z,6.00
2022-07-26T07:50:33.485Z,5.93
2022-07-26T07:53:01.984Z,5.97
2022-07-26T07:55:41.276Z,5.68
2022-07-26T07:58:11.219Z,6.25
2022-07-26T08:00:38.764Z,6.32
2022-07-26T08:03:05.836Z,6.13
2022-07-26T08:05:32.942Z,5.25
2022-07-26T08:07:59.961Z,6.22
2022-07-26T08:10:27.281Z,5.75
2022-07-26T08:12:54.315Z,6.88
2022-07-26T08:15:23.440Z,6.82
2022-07-26T08:17:54.681Z,6.65
2022-07-26T08:20:23.734Z,6.20
2022-07-26T08:22:52.518Z,5.70
2022-07-26T08:25:20.111Z,7.07
2022-07-26T08:28:00.518Z,6.32
2022-07-26T08:30:31.077Z,6.10
2022-07-26T08:32:59.376Z,6.65
2022-07-26T08:35:26.418Z,6.88
2022-07-26T08:37:53.445Z,6.80
2022-07-26T08:40:20.419Z,6.90
2022-07-26T08:42:52.797Z,6.50
2022-07-26T08:45:28.644Z,7.28
2022-07-26T08:48:16.659Z,6.90
2022-07-26T08:50:44.065Z,6.32
2022-07-26T08:53:12.948Z,6.93
2022-07-26T08:56:05.510Z,6.18
2022-07-26T08:58:27.291Z,7.15
2022-07-26T09:01:15.083Z,6.53
2022-07-26T09:03:44.250Z,6.22
2022-07-26T09:06:19.122Z,6.72
2022-07-26T09:08:48.667Z,6.18
2022-07-26T09:11:24.648Z,6.50
2022-07-26T09:14:01.239Z,6.10
2022-07-26T09:16:29.244Z,6.65
2022-07-26T09:19:15.779Z,7.25
2022-07-26T09:21:42.795Z,7.35
2022-07-26T09:24:10.580Z,6.53
2022-07-26T09:26:38.112Z,6.32
2022-07-26T09:29:09.948Z,6.40
2022-07-26T09:31:38.680Z,6.43
2022-07-26T09:34:07.434Z,6.13
2022-07-26T09:36:53.456Z,6.10
2022-07-26T09:39:33.733Z,6.20
2022-07-26T09:42:27.345Z,5.80
2022-07-26T09:44:57.078Z,5.90
2022-07-26T09:47:44.801Z,6.22
2022-07-26T09:50:15.771Z,5.70
2022-07-26T09:53:03.926Z,5.30
2022-07-26T09:55:40.834Z,5.38
2022-07-26T09:58:15.882Z,5.78
2022-07-26T10:00:43.735Z,5.28
2022-07-26T10:03:11.216Z,6.07
2022-07-26T10:05:39.200Z,6.03
2022-07-26T10:08:07.903Z,5.57
2022-07-26T10:10:46.464Z,5.70
2022-07-26T10:13:14.224Z,5.65
2022-07-26T10:15:47.243Z,5.47
2022-07-26T10:18:36.275Z,6.22
2022-07-26T10:21:23.322Z,5.70
2022-07-26T10:24:24.725Z,6.28
2022-07-26T10:26:51.676Z,5.75
2022-07-26T10:29:26.090Z,5.53
2022-07-26T10:31:56.260Z,5.95
2022-07-26T10:34:52.956Z,5.35
2022-07-26T10:37:27.687Z,5.82
2022-07-26T10:40:19.303Z,6.10
2022-07-26T10:42:47.033Z,5.68
2022-07-26T10:45:22.460Z,6.00
2022-07-26T10:48:29.338Z,6.55
2022-07-26T10:50:56.328Z,6.75
2022-07-26T10:53:26.062Z,6.93
2022-07-26T10:55:55.411Z,6.65
2022-07-26T10:58:23.969Z,6.60
2022-07-26T11:00:56.637Z,6.63
2022-07-26T11:03:24.100Z,6.35
2022-07-26T11:05:51.541Z,6.10
2022-07-26T11:08:18.494Z,7.30
2022-07-26T11:10:47.377Z,5.90
2022-07-26T11:13:17.444Z,6.60
2022-07-26T11:15:50.205Z,6.18
2022-07-26T11:18:24.248Z,6.30
2022-07-26T11:20:55.385Z,6.03
2022-07-26T11:23:26.857Z,6.47
2022-07-26T11:26:07.378Z,6.05
2022-07-26T11:29:06.331Z,6.70
2022-07-26T11:31:50.690Z,7.20
2022-07-26T11:36:59.761Z,6.32
2022-07-26T11:39:35.113Z,6.07
2022-07-26T11:42:08.177Z,5.88
2022-07-26T11:44:35.990Z,5.80
2022-07-26T11:47:12.113Z,6.35
2022-07-26T11:50:00.538Z,16.48
2022-07-26T11:52:31.041Z,5.75
2022-07-26T11:54:58.167Z,6.65
2022-07-26T11:57:30.763Z,5.47
2022-07-26T11:59:58.869Z,5.57
2022-07-26T12:02:26.639Z,6.85
2022-07-26T12:05:16.913Z,5.82
2022-07-26T12:08:13.548Z,15.75
2022-07-26T12:10:40.583Z,6.50
2022-07-26T12:13:15.460Z,5.95
2022-07-26T12:15:49.811Z,6.13
2022-07-26T12:18:36.681Z,5.45
2022-07-26T12:21:08.894Z,6.28
2022-07-26T12:23:53.087Z,5.75
2022-07-26T12:26:25.893Z,5.50
2022-07-26T12:31:31.749Z,5.40
2022-07-26T12:33:59.221Z,6.00
2022-07-26T12:36:29.667Z,5.78
2022-07-26T12:39:01.199Z,6.22
2022-07-26T12:41:40.510Z,6.18
2022-07-26T12:44:12.390Z,5.22
2022-07-26T12:46:39.877Z,5.28
2022-07-26T12:49:07.007Z,5.97
2022-07-26T12:51:34.125Z,6.15
2022-07-26T12:54:01.311Z,6.40
2022-07-26T12:56:28.370Z,5.55
2022-07-26T12:59:01.087Z,6.20
2022-07-26T13:01:30.141Z,7.00
2022-07-26T13:03:57.265Z,6.72
2022-07-26T13:06:24.269Z,6.20
2022-07-26T13:08:51.387Z,7.15
2022-07-26T13:11:18.365Z,6.68
2022-07-26T13:13:45.401Z,6.20
2022-07-26T13:16:12.647Z,6.30
2022-07-26T13:18:40.049Z,6.95
2022-07-26T13:21:07.329Z,7.28
2022-07-26T13:23:35.691Z,6.57
2022-07-26T13:26:04.112Z,6.53
2022-07-26T13:28:31.380Z,6.97
2022-07-26T13:30:58.528Z,7.18
2022-07-26T13:33:25.561Z,7.30
2022-07-26T13:35:52.521Z,6.75
2022-07-26T13:38:20.292Z,6.57
2022-07-26T13:40:47.541Z,6.90
2022-07-26T13:43:15.000Z,6.35
2022-07-26T13:45:42.162Z,7.07
2022-07-26T13:48:09.304Z,6.55
2022-07-26T13:50:36.271Z,6.85
2022-07-26T13:53:03.267Z,6.22
2022-07-26T13:55:30.237Z,6.10
2022-07-26T13:57:58.140Z,6.47
2022-07-26T14:00:27.188Z,6.15
2022-07-26T14:02:55.824Z,6.10
2022-07-26T14:05:23.321Z,5.82
2022-07-26T14:07:51.089Z,5.97
2022-07-26T14:10:19.412Z,5.90
2022-07-26T14:12:47.870Z,5.85
2022-07-26T14:15:21.175Z,5.43
2022-07-26T14:17:49.928Z,5.95
2022-07-26T14:20:20.042Z,5.28
2022-07-26T14:22:47.755Z,5.32
2022-07-26T14:25:14.919Z,5.03
2022-07-26T14:27:41.893Z,4.90
2022-07-26T14:30:09.235Z,4.75
2022-07-26T14:32:36.398Z,4.28
2022-07-26T14:35:04.218Z,4.75
2022-07-26T14:37:44.323Z,5.32
2022-07-26T14:40:17.107Z,5.05
2022-07-26T14:42:45.259Z,5.60
2022-07-26T14:45:13.462Z,5.50
2022-07-26T14:47:41.001Z,6.32
2022-07-26T14:50:09.506Z,5.57
2022-07-26T14:52:45.982Z,5.93
2022-07-26T14:55:13.733Z,5.60
2022-07-26T14:57:41.752Z,6.00
2022-07-26T15:00:12.012Z,5.97
2022-07-26T15:02:43.910Z,5.57
2022-07-26T15:05:12.153Z,5.90
2022-07-26T15:07:40.115Z,7.00
2022-07-26T15:10:09.494Z,6.20
2022-07-26T15:12:36.879Z,6.28
2022-07-26T15:15:06.264Z,6.55
2022-07-26T15:17:33.289Z,6.38
2022-07-26T15:20:00.308Z,6.30
2022-07-26T15:22:27.308Z,5.47
2022-07-26T15:24:54.296Z,5.55
2022-07-26T15:27:21.330Z,5.80
2022-07-26T15:29:50.836Z,6.18
2022-07-26T15:32:18.011Z,6.70
2022-07-26T15:34:45.016Z,6.30
2022-07-26T15:37:12.347Z,6.13
2022-07-26T15:39:39.299Z,6.13
2022-07-26T15:42:07.732Z,6.03
2022-07-26T15:44:38.423Z,6.22
2022-07-26T15:47:05.805Z,5.53
2022-07-26T15:49:33.570Z,6.00
2022-07-26T15:52:11.451Z,5.72
2022-07-26T15:54:40.668Z,6.20
2022-07-26T15:57:08.261Z,5.88
2022-07-26T15:59:35.433Z,5.80
2022-07-26T16:02:04.340Z,5.75
2022-07-26T16:04:31.417Z,4.93
2022-07-26T16:06:58.401Z,5.63
2022-07-26T16:09:25.539Z,5.45
2022-07-26T16:11:52.618Z,4.40
2022-07-26T16:14:19.668Z,5.28
2022-07-26T16:16:46.793Z,4.88
2022-07-26T16:19:14.533Z,5.05
2022-07-26T16:21:41.799Z,4.32
2022-07-26T16:24:09.027Z,4.30
2022-07-26T16:26:36.498Z,4.22
2022-07-26T16:29:04.555Z,3.90
2022-07-26T16:31:33.121Z,3.95
2022-07-26T16:34:00.657Z,4.43
2022-07-26T16:36:28.574Z,3.55
2022-07-26T16:38:55.633Z,4.03
2022-07-26T16:41:22.619Z,3.88
2022-07-26T16:43:49.751Z,3.60
2022-07-26T16:46:17.186Z,4.03
2022-07-26T16:48:44.397Z,3.60
2022-07-26T16:51:13.452Z,3.20
2022-07-26T16:53:41.222Z,3.17
2022-07-26T16:56:08.449Z,3.10
2022-07-26T16:58:36.114Z,3.20
2022-07-26T17:01:03.263Z,3.28
2022-07-26T17:03:30.284Z,3.08
2022-07-26T17:05:57.357Z,3.00
2022-07-26T17:08:25.318Z,3.33
2022-07-26T17:10:52.337Z,3.33
2022-07-26T17:13:21.909Z,3.30
2022-07-26T17:15:49.429Z,3.38
2022-07-26T17:18:17.024Z,3.20
2022-07-26T17:20:44.086Z,2.92
2022-07-26T17:23:11.408Z,3.22
2022-07-26T17:25:38.406Z,3.22
2022-07-26T17:28:05.780Z,3.63
2022-07-26T17:30:32.885Z,3.80
2022-07-26T17:33:00.295Z,3.03
2022-07-26T17:35:27.501Z,4.03
2022-07-26T17:37:56.456Z,3.65
2022-07-26T17:40:25.898Z,5.72
2022-07-26T17:42:54.005Z,3.03
2022-07-26T17:45:21.129Z,3.13
2022-07-26T17:47:48.226Z,3.17
2022-07-26T17:53:02.249Z,3.50
2022-07-26T17:55:29.289Z,3.15
2022-07-26T17:57:56.299Z,3.75
2022-07-26T18:00:23.812Z,3.40
2022-07-26T18:02:55.673Z,3.75
2022-07-26T18:05:24.316Z,3.65
2022-07-26T18:07:54.808Z,4.35
2022-07-26T18:10:21.981Z,3.50
2022-07-26T18:12:50.164Z,3.90
2022-07-26T18:15:17.131Z,2.90
2022-07-26T18:17:44.237Z,3.22
2022-07-26T18:20:12.145Z,3.20
2022-07-26T18:22:39.500Z,2.80
2022-07-26T18:25:07.378Z,3.13
2022-07-26T18:27:34.667Z,3.00
2022-07-26T18:30:01.964Z,2.80
2022-07-26T18:32:28.917Z,3.25
2022-07-26T18:34:56.223Z,3.33
2022-07-26T18:37:23.612Z,3.30
2022-07-26T18:39:57.016Z,3.35
2022-07-26T18:42:24.851Z,3.35
2022-07-26T18:44:51.869Z,3.00
2022-07-26T18:47:18.802Z,3.42
2022-07-26T18:49:45.818Z,3.22
2022-07-26T18:52:12.842Z,3.13
2022-07-26T18:54:40.454Z,2.92
2022-07-26T18:57:07.448Z,3.13
2022-07-26T18:59:34.440Z,3.80
2022-07-26T19:02:01.507Z,3.28
2022-07-26T19:04:28.738Z,3.40
2022-07-26T19:06:56.028Z,3.10
2022-07-26T19:09:23.815Z,2.95
2022-07-26T19:11:50.807Z,3.22
2022-07-26T19:14:17.880Z,2.70
2022-07-26T19:16:45.005Z,3.03
2022-07-26T19:19:12.226Z,3.60
2022-07-26T19:21:44.939Z,3.40
2022-07-26T19:24:12.294Z,3.60
2022-07-26T19:26:39.245Z,3.17
2022-07-26T19:29:06.659Z,2.80
2022-07-26T19:31:34.265Z,3.00
2022-07-26T19:34:01.713Z,3.15
2022-07-26T19:36:28.725Z,2.90
2022-07-26T19:38:57.252Z,3.05
2022-07-26T19:41:24.659Z,3.08
2022-07-26T19:43:51.653Z,4.03
2022-07-26T19:46:18.729Z,2.95
2022-07-26T19:48:45.852Z,3.35
2022-07-26T19:51:13.041Z,3.03
2022-07-26T19:53:40.095Z,3.65
2022-07-26T19:56:07.919Z,3.55
2022-07-26T19:58:35.047Z,3.15
2022-07-26T20:01:02.652Z,3.28
2022-07-26T20:03:29.776Z,3.90
2022-07-26T20:05:57.807Z,3.40
2022-07-26T20:08:25.369Z,3.25
2022-07-26T20:10:53.001Z,3.33
2022-07-26T20:13:20.077Z,4.15
2022-07-26T20:15:47.491Z,3.30
2022-07-26T20:18:14.692Z,3.83
2022-07-26T20:20:41.968Z,3.22
2022-07-26T20:23:11.222Z,3.03
2022-07-26T20:25:38.808Z,3.38
2022-07-26T20:28:06.040Z,3.72
2022-07-26T20:30:33.090Z,3.20
2022-07-26T20:33:00.106Z,3.70
2022-07-26T20:35:27.187Z,3.67
2022-07-26T20:37:54.145Z,3.38
2022-07-26T20:40:21.538Z,3.30
2022-07-26T20:42:50.243Z,3.90
2022-07-26T20:45:18.051Z,3.10
2022-07-26T20:47:45.447Z,3.35
2022-07-26T20:50:13.399Z,3.20
2022-07-26T20:52:40.853Z,3.42
2022-07-26T20:55:08.795Z,3.33
2022-07-26T20:57:36.784Z,3.50
2022-07-26T21:00:09.881Z,3.60
2022-07-26T21:02:37.701Z,3.33
2022-07-26T21:05:05.719Z,3.05
2022-07-26T21:07:56.569Z,3.55
2022-07-26T21:10:20.677Z,3.45
2022-07-26T21:12:49.276Z,3.08
2022-07-26T21:15:16.524Z,3.67
2022-07-26T21:17:43.694Z,3.40
2022-07-26T21:20:10.789Z,3.72
2022-07-26T21:22:37.754Z,2.95
2022-07-26T21:25:05.717Z,3.63
2022-07-26T21:27:32.686Z,3.55
2022-07-26T21:30:00.093Z,3.30
2022-07-26T21:32:31.166Z,3.55
2022-07-26T21:34:59.559Z,3.55
2022-07-26T21:37:26.808Z,3.85
2022-07-26T21:39:53.932Z,3.67
2022-07-26T21:42:20.896Z,3.70
2022-07-26T21:44:47.876Z,3.92
2022-07-26T21:47:14.819Z,3.50
2022-07-26T21:49:41.838Z,4.05
2022-07-26T21:52:08.910Z,3.75
2022-07-26T21:54:36.039Z,4.00
2022-07-26T21:57:03.132Z,3.88
2022-07-26T21:59:30.115Z,3.88
2022-07-26T22:01:57.249Z,3.83
2022-07-26T22:04:24.415Z,4.05
2022-07-26T22:06:51.457Z,3.38
2022-07-26T22:09:18.420Z,4.20
2022-07-26T22:11:45.480Z,4.35
2022-07-26T22:14:12.462Z,4.10
2022-07-26T22:16:39.462Z,3.95
2022-07-26T22:19:08.052Z,4.15
2022-07-26T22:21:35.257Z,3.85
2022-07-26T22:24:02.241Z,3.53
2022-07-26T22:26:31.239Z,3.92
2022-07-26T22:28:59.309Z,3.90
2022-07-26T22:31:26.495Z,4.10
2022-07-26T22:33:53.657Z,3.30
2022-07-26T22:36:20.759Z,3.40
2022-07-26T22:38:47.776Z,3.67
2022-07-26T22:41:14.806Z,3.63
2022-07-26T22:43:41.939Z,3.80
2022-07-26T22:46:09.163Z,3.88
2022-07-26T22:48:38.654Z,3.28
2022-07-26T22:51:06.513Z,3.10
2022-07-26T22:53:33.482Z,3.90
2022-07-26T22:56:00.450Z,3.58
2022-07-26T22:58:27.447Z,3.45
2022-07-26T23:00:54.582Z,3.58
2022-07-26T23:03:22.006Z,3.47
2022-07-26T23:05:50.471Z,3.83
2022-07-26T23:11:06.687Z,3.75
2022-07-26T23:13:34.118Z,3.70
2022-07-26T23:16:01.917Z,3.25
2022-07-26T23:18:30.686Z,3.58
2022-07-26T23:20:57.885Z,4.10
2022-07-26T23:23:27.904Z,2.92
2022-07-26T23:25:57.591Z,3.70
2022-07-26T23:28:36.111Z,4.30
2022-07-26T23:31:10.842Z,3.70
2022-07-26T23:33:51.509Z,3.58
2022-07-26T23:36:28.747Z,3.70
2022-07-26T23:38:57.827Z,3.92
2022-07-26T23:41:25.292Z,3.15
2022-07-26T23:43:52.845Z,3.75
2022-07-26T23:46:20.014Z,3.90
2022-07-26T23:48:47.500Z,3.85
2022-07-26T23:51:14.821Z,3.63
2022-07-26T23:53:42.481Z,3.97
2022-07-26T23:56:09.891Z,3.78
2022-07-26T23:58:37.561Z,3.22
